sensor_id;sensor_type;location;lat;lon;timestamp;temperature;humidity
11762;DHT22;5938;47.098;15.474;2023-08-06T00:01:43;14.70;99.90
11762;DHT22;5938;47.098;15.474;2023-08-06T00:05:49;14.70;99.90
11762;DHT22;5938;47.098;15.474;2023-08-06T00:09:58;14.70;99.90
11762;DHT22;5938;47.098;15.474;2023-08-06T00:14:02;14.70;99.90
11762;DHT22;5938;47.098;15.474;2023-08-06T00:18:15;14.70;99.90
11762;DHT22;5938;47.098;15.474;2023-08-06T00:22:23;14.70;99.90
11762;DHT22;5938;47.098;15.474;2023-08-06T00:26:29;14.70;99.90
11762;DHT22;5938;47.098;15.474;2023-08-06T00:30:38;14.70;99.90
11762;DHT22;5938;47.098;15.474;2023-08-06T00:34:42;14.70;99.90
11762;DHT22;5938;47.098;15.474;2023-08-06T00:38:50;14.70;99.90
11762;DHT22;5938;47.098;15.474;2023-08-06T00:42:56;14.70;99.90
11762;DHT22;5938;47.098;15.474;2023-08-06T00:47:00;14.70;99.90
11762;DHT22;5938;47.098;15.474;2023-08-06T00:51:09;14.60;99.90
11762;DHT22;5938;47.098;15.474;2023-08-06T00:55:16;14.60;99.90
11762;DHT22;5938;47.098;15.474;2023-08-06T00:59:23;14.60;99.90
11762;DHT22;5938;47.098;15.474;2023-08-06T01:03:27;14.70;99.90
11762;DHT22;5938;47.098;15.474;2023-08-06T01:07:50;14.70;99.90
11762;DHT22;5938;47.098;15.474;2023-08-06T01:12:06;14.60;99.90
11762;DHT22;5938;47.098;15.474;2023-08-06T01:16:20;14.60;99.90
11762;DHT22;5938;47.098;15.474;2023-08-06T01:20:30;14.60;99.90
11762;DHT22;5938;47.098;15.474;2023-08-06T01:24:42;14.60;99.90
11762;DHT22;5938;47.098;15.474;2023-08-06T01:28:54;14.50;99.90
11762;DHT22;5938;47.098;15.474;2023-08-06T01:33:04;14.50;99.90
11762;DHT22;5938;47.098;15.474;2023-08-06T01:37:12;14.60;99.90
11762;DHT22;5938;47.098;15.474;2023-08-06T01:41:19;14.60;99.90
11762;DHT22;5938;47.098;15.474;2023-08-06T01:45:24;14.50;99.90
11762;DHT22;5938;47.098;15.474;2023-08-06T01:49:28;14.40;99.90
11762;DHT22;5938;47.098;15.474;2023-08-06T01:53:35;14.40;99.90
11762;DHT22;5938;47.098;15.474;2023-08-06T01:57:40;14.40;99.90
11762;DHT22;5938;47.098;15.474;2023-08-06T02:01:47;14.40;99.90
11762;DHT22;5938;47.098;15.474;2023-08-06T02:05:51;14.40;99.90
11762;DHT22;5938;47.098;15.474;2023-08-06T02:10:16;14.40;99.90
11762;DHT22;5938;47.098;15.474;2023-08-06T02:14:23;14.40;99.90
11762;DHT22;5938;47.098;15.474;2023-08-06T02:18:28;14.40;99.90
11762;DHT22;5938;47.098;15.474;2023-08-06T02:22:31;14.40;99.90
11762;DHT22;5938;47.098;15.474;2023-08-06T02:26:37;14.40;99.90
11762;DHT22;5938;47.098;15.474;2023-08-06T02:30:54;14.40;99.90
11762;DHT22;5938;47.098;15.474;2023-08-06T02:34:58;14.30;99.90
11762;DHT22;5938;47.098;15.474;2023-08-06T02:39:01;14.30;99.90
11762;DHT22;5938;47.098;15.474;2023-08-06T02:43:06;14.30;99.90
11762;DHT22;5938;47.098;15.474;2023-08-06T02:47:10;14.30;99.90
11762;DHT22;5938;47.098;15.474;2023-08-06T02:51:14;14.30;99.90
11762;DHT22;5938;47.098;15.474;2023-08-06T02:55:18;14.20;99.90
11762;DHT22;5938;47.098;15.474;2023-08-06T02:59:22;14.20;99.90
11762;DHT22;5938;47.098;15.474;2023-08-06T03:03:26;14.20;99.90
11762;DHT22;5938;47.098;15.474;2023-08-06T03:07:30;14.20;99.90
11762;DHT22;5938;47.098;15.474;2023-08-06T03:11:35;14.20;99.90
11762;DHT22;5938;47.098;15.474;2023-08-06T03:15:40;14.20;99.90
11762;DHT22;5938;47.098;15.474;2023-08-06T03:19:44;14.20;99.90
11762;DHT22;5938;47.098;15.474;2023-08-06T03:23:47;14.20;99.90
11762;DHT22;5938;47.098;15.474;2023-08-06T03:27:52;14.20;99.90
11762;DHT22;5938;47.098;15.474;2023-08-06T03:31:57;14.20;99.90
11762;DHT22;5938;47.098;15.474;2023-08-06T03:36:01;14.20;99.90
11762;DHT22;5938;47.098;15.474;2023-08-06T03:40:05;14.20;99.90
11762;DHT22;5938;47.098;15.474;2023-08-06T03:44:09;14.20;99.90
11762;DHT22;5938;47.098;15.474;2023-08-06T03:48:14;14.20;99.90
11762;DHT22;5938;47.098;15.474;2023-08-06T03:52:18;14.20;99.90
11762;DHT22;5938;47.098;15.474;2023-08-06T03:56:21;14.20;99.90
11762;DHT22;5938;47.098;15.474;2023-08-06T04:00:25;14.20;99.90
11762;DHT22;5938;47.098;15.474;2023-08-06T04:04:30;14.20;99.90
11762;DHT22;5938;47.098;15.474;2023-08-06T04:08:34;14.20;99.90
11762;DHT22;5938;47.098;15.474;2023-08-06T04:12:39;14.20;99.90
11762;DHT22;5938;47.098;15.474;2023-08-06T04:17:08;14.20;99.90
11762;DHT22;5938;47.098;15.474;2023-08-06T04:21:13;14.20;99.90
11762;DHT22;5938;47.098;15.474;2023-08-06T04:25:16;14.20;99.90
11762;DHT22;5938;47.098;15.474;2023-08-06T04:29:23;14.30;99.90
11762;DHT22;5938;47.098;15.474;2023-08-06T04:33:26;14.30;99.90
11762;DHT22;5938;47.098;15.474;2023-08-06T04:37:32;14.30;99.90
11762;DHT22;5938;47.098;15.474;2023-08-06T04:41:35;14.30;99.90
11762;DHT22;5938;47.098;15.474;2023-08-06T04:45:46;14.30;99.90
11762;DHT22;5938;47.098;15.474;2023-08-06T04:49:55;14.40;99.90
11762;DHT22;5938;47.098;15.474;2023-08-06T04:54:17;14.40;99.90
11762;DHT22;5938;47.098;15.474;2023-08-06T04:58:31;14.40;99.90
11762;DHT22;5938;47.098;15.474;2023-08-06T05:02:34;14.40;99.90
11762;DHT22;5938;47.098;15.474;2023-08-06T05:07:04;14.40;99.90
11762;DHT22;5938;47.098;15.474;2023-08-06T05:17:08;14.40;99.90
11762;DHT22;5938;47.098;15.474;2023-08-06T05:21:16;14.50;99.90
11762;DHT22;5938;47.098;15.474;2023-08-06T05:25:24;14.50;99.90
11762;DHT22;5938;47.098;15.474;2023-08-06T05:30:14;14.50;99.90
11762;DHT22;5938;47.098;15.474;2023-08-06T05:39:10;14.60;99.90
11762;DHT22;5938;47.098;15.474;2023-08-06T05:43:14;14.60;99.90
11762;DHT22;5938;47.098;15.474;2023-08-06T05:47:18;14.70;99.90
11762;DHT22;5938;47.098;15.474;2023-08-06T05:51:23;14.70;99.90
11762;DHT22;5938;47.098;15.474;2023-08-06T05:55:29;14.90;99.90
11762;DHT22;5938;47.098;15.474;2023-08-06T05:59:33;14.90;99.90
11762;DHT22;5938;47.098;15.474;2023-08-06T06:03:39;15.10;99.90
11762;DHT22;5938;47.098;15.474;2023-08-06T06:07:43;15.10;99.90
11762;DHT22;5938;47.098;15.474;2023-08-06T06:11:48;15.20;99.90
11762;DHT22;5938;47.098;15.474;2023-08-06T06:15:54;15.20;99.90
11762;DHT22;5938;47.098;15.474;2023-08-06T06:19:58;15.30;99.90
11762;DHT22;5938;47.098;15.474;2023-08-06T06:24:03;15.20;99.90
11762;DHT22;5938;47.098;15.474;2023-08-06T06:28:08;15.40;99.90
11762;DHT22;5938;47.098;15.474;2023-08-06T06:32:12;15.50;99.90
11762;DHT22;5938;47.098;15.474;2023-08-06T06:36:16;15.50;99.90
11762;DHT22;5938;47.098;15.474;2023-08-06T06:40:19;15.70;99.90
11762;DHT22;5938;47.098;15.474;2023-08-06T06:44:24;15.60;99.90
11762;DHT22;5938;47.098;15.474;2023-08-06T06:48:29;15.50;99.90
11762;DHT22;5938;47.098;15.474;2023-08-06T06:52:33;15.60;99.90
11762;DHT22;5938;47.098;15.474;2023-08-06T06:56:36;15.50;99.90
11762;DHT22;5938;47.098;15.474;2023-08-06T07:00:42;15.70;99.90
11762;DHT22;5938;47.098;15.474;2023-08-06T07:04:45;15.70;99.90
11762;DHT22;5938;47.098;15.474;2023-08-06T07:08:49;15.70;99.90
11762;DHT22;5938;47.098;15.474;2023-08-06T07:12:54;15.80;99.90
11762;DHT22;5938;47.098;15.474;2023-08-06T07:16:59;15.80;99.90
11762;DHT22;5938;47.098;15.474;2023-08-06T07:21:02;15.90;99.90
11762;DHT22;5938;47.098;15.474;2023-08-06T07:25:07;16.00;99.90
11762;DHT22;5938;47.098;15.474;2023-08-06T07:29:10;16.10;99.90
11762;DHT22;5938;47.098;15.474;2023-08-06T07:33:15;16.20;99.90
11762;DHT22;5938;47.098;15.474;2023-08-06T07:37:19;16.10;99.90
11762;DHT22;5938;47.098;15.474;2023-08-06T07:41:23;16.30;99.90
11762;DHT22;5938;47.098;15.474;2023-08-06T07:45:27;16.30;99.90
11762;DHT22;5938;47.098;15.474;2023-08-06T07:49:33;16.20;99.90
11762;DHT22;5938;47.098;15.474;2023-08-06T07:53:37;16.30;99.90
11762;DHT22;5938;47.098;15.474;2023-08-06T07:57:41;16.20;99.90
11762;DHT22;5938;47.098;15.474;2023-08-06T08:01:45;16.30;99.90
11762;DHT22;5938;47.098;15.474;2023-08-06T08:05:55;16.40;99.90
11762;DHT22;5938;47.098;15.474;2023-08-06T08:10:00;16.50;99.90
11762;DHT22;5938;47.098;15.474;2023-08-06T08:14:04;16.50;99.90
11762;DHT22;5938;47.098;15.474;2023-08-06T08:18:08;16.60;99.90
11762;DHT22;5938;47.098;15.474;2023-08-06T08:22:14;16.50;99.90
11762;DHT22;5938;47.098;15.474;2023-08-06T08:26:19;16.70;99.90
11762;DHT22;5938;47.098;15.474;2023-08-06T08:30:23;16.80;99.90
11762;DHT22;5938;47.098;15.474;2023-08-06T08:34:28;16.60;99.90
11762;DHT22;5938;47.098;15.474;2023-08-06T08:38:33;16.60;99.90
11762;DHT22;5938;47.098;15.474;2023-08-06T08:42:38;16.80;99.90
11762;DHT22;5938;47.098;15.474;2023-08-06T08:46:42;16.80;99.90
11762;DHT22;5938;47.098;15.474;2023-08-06T08:50:49;16.80;99.90
11762;DHT22;5938;47.098;15.474;2023-08-06T08:54:55;17.10;99.90
11762;DHT22;5938;47.098;15.474;2023-08-06T08:58:59;17.20;99.90
11762;DHT22;5938;47.098;15.474;2023-08-06T09:03:06;17.30;99.90
11762;DHT22;5938;47.098;15.474;2023-08-06T09:07:14;17.10;99.90
11762;DHT22;5938;47.098;15.474;2023-08-06T09:11:23;17.20;99.90
11762;DHT22;5938;47.098;15.474;2023-08-06T09:15:28;17.40;99.90
11762;DHT22;5938;47.098;15.474;2023-08-06T09:19:32;17.50;99.90
11762;DHT22;5938;47.098;15.474;2023-08-06T09:23:35;17.50;99.90
11762;DHT22;5938;47.098;15.474;2023-08-06T09:27:41;17.40;99.90
11762;DHT22;5938;47.098;15.474;2023-08-06T09:31:50;17.30;99.90
11762;DHT22;5938;47.098;15.474;2023-08-06T09:35:55;17.30;99.90
11762;DHT22;5938;47.098;15.474;2023-08-06T09:39:58;17.40;99.90
11762;DHT22;5938;47.098;15.474;2023-08-06T09:44:04;17.40;99.90
11762;DHT22;5938;47.098;15.474;2023-08-06T09:48:08;17.50;99.90
11762;DHT22;5938;47.098;15.474;2023-08-06T09:52:13;17.40;99.90
11762;DHT22;5938;47.098;15.474;2023-08-06T09:56:18;17.50;99.90
11762;DHT22;5938;47.098;15.474;2023-08-06T10:00:24;17.70;99.90
11762;DHT22;5938;47.098;15.474;2023-08-06T10:04:29;18.00;99.90
11762;DHT22;5938;47.098;15.474;2023-08-06T10:08:42;18.20;99.90
11762;DHT22;5938;47.098;15.474;2023-08-06T10:12:49;18.40;99.90
11762;DHT22;5938;47.098;15.474;2023-08-06T10:16:56;18.80;99.90
11762;DHT22;5938;47.098;15.474;2023-08-06T10:21:07;19.40;99.90
11762;DHT22;5938;47.098;15.474;2023-08-06T10:25:16;20.10;99.90
11762;DHT22;5938;47.098;15.474;2023-08-06T10:29:36;21.20;99.90
11762;DHT22;5938;47.098;15.474;2023-08-06T10:33:45;22.30;99.90
11762;DHT22;5938;47.098;15.474;2023-08-06T10:37:49;23.40;99.90
11762;DHT22;5938;47.098;15.474;2023-08-06T10:41:53;23.50;99.90
11762;DHT22;5938;47.098;15.474;2023-08-06T10:46:02;23.20;99.60
11762;DHT22;5938;47.098;15.474;2023-08-06T10:50:11;23.80;99.90
11762;DHT22;5938;47.098;15.474;2023-08-06T10:54:16;24.60;97.80
11762;DHT22;5938;47.098;15.474;2023-08-06T10:58:20;25.20;97.50
11762;DHT22;5938;47.098;15.474;2023-08-06T11:02:25;25.70;96.50
11762;DHT22;5938;47.098;15.474;2023-08-06T11:06:30;26.10;96.60
11762;DHT22;5938;47.098;15.474;2023-08-06T11:10:34;25.80;93.90
11762;DHT22;5938;47.098;15.474;2023-08-06T11:14:39;25.50;94.80
11762;DHT22;5938;47.098;15.474;2023-08-06T11:18:43;25.50;91.40
11762;DHT22;5938;47.098;15.474;2023-08-06T11:22:48;25.70;91.70
11762;DHT22;5938;47.098;15.474;2023-08-06T11:26:51;26.20;83.80
11762;DHT22;5938;47.098;15.474;2023-08-06T11:30:55;26.50;90.20
11762;DHT22;5938;47.098;15.474;2023-08-06T11:35:10;27.10;83.90
11762;DHT22;5938;47.098;15.474;2023-08-06T11:39:15;28.20;86.70
11762;DHT22;5938;47.098;15.474;2023-08-06T11:43:19;28.40;81.10
11762;DHT22;5938;47.098;15.474;2023-08-06T11:47:25;28.10;83.30
11762;DHT22;5938;47.098;15.474;2023-08-06T11:51:29;29.50;75.50
11762;DHT22;5938;47.098;15.474;2023-08-06T11:55:35;28.00;81.00
11762;DHT22;5938;47.098;15.474;2023-08-06T11:59:39;28.30;77.90
11762;DHT22;5938;47.098;15.474;2023-08-06T12:03:43;28.20;81.90
11762;DHT22;5938;47.098;15.474;2023-08-06T12:07:48;30.50;79.10
11762;DHT22;5938;47.098;15.474;2023-08-06T12:11:54;29.20;76.70
11762;DHT22;5938;47.098;15.474;2023-08-06T12:16:00;27.70;79.50
11762;DHT22;5938;47.098;15.474;2023-08-06T12:20:04;27.60;73.50
11762;DHT22;5938;47.098;15.474;2023-08-06T12:24:09;27.20;77.10
11762;DHT22;5938;47.098;15.474;2023-08-06T12:28:15;28.10;76.10
11762;DHT22;5938;47.098;15.474;2023-08-06T12:32:19;28.20;82.30
11762;DHT22;5938;47.098;15.474;2023-08-06T12:36:25;28.10;80.10
11762;DHT22;5938;47.098;15.474;2023-08-06T12:40:32;29.80;73.70
11762;DHT22;5938;47.098;15.474;2023-08-06T12:44:42;30.00;70.50
11762;DHT22;5938;47.098;15.474;2023-08-06T12:48:46;28.00;74.70
11762;DHT22;5938;47.098;15.474;2023-08-06T12:52:51;27.10;77.20
11762;DHT22;5938;47.098;15.474;2023-08-06T12:56:57;25.80;76.30
11762;DHT22;5938;47.098;15.474;2023-08-06T13:01:05;24.40;85.20
11762;DHT22;5938;47.098;15.474;2023-08-06T13:05:12;24.10;90.30
11762;DHT22;5938;47.098;15.474;2023-08-06T13:09:18;26.80;73.80
11762;DHT22;5938;47.098;15.474;2023-08-06T13:13:23;31.00;69.10
11762;DHT22;5938;47.098;15.474;2023-08-06T13:17:31;31.90;61.00
11762;DHT22;5938;47.098;15.474;2023-08-06T13:25:56;31.60;61.10
11762;DHT22;5938;47.098;15.474;2023-08-06T13:30:01;32.00;63.40
11762;DHT22;5938;47.098;15.474;2023-08-06T13:34:07;33.70;55.80
11762;DHT22;5938;47.098;15.474;2023-08-06T13:38:16;33.30;55.40
11762;DHT22;5938;47.098;15.474;2023-08-06T13:42:20;35.20;55.00
11762;DHT22;5938;47.098;15.474;2023-08-06T13:46:25;35.90;48.00
11762;DHT22;5938;47.098;15.474;2023-08-06T13:50:31;33.00;52.90
11762;DHT22;5938;47.098;15.474;2023-08-06T13:54:48;32.30;51.10
11762;DHT22;5938;47.098;15.474;2023-08-06T13:58:52;33.30;51.90
11762;DHT22;5938;47.098;15.474;2023-08-06T14:02:57;30.70;54.90
11762;DHT22;5938;47.098;15.474;2023-08-06T14:07:03;27.90;62.10
11762;DHT22;5938;47.098;15.474;2023-08-06T14:11:08;26.20;67.30
11762;DHT22;5938;47.098;15.474;2023-08-06T14:15:13;24.10;74.90
11762;DHT22;5938;47.098;15.474;2023-08-06T14:19:18;23.90;85.30
11762;DHT22;5938;47.098;15.474;2023-08-06T14:23:25;24.00;87.10
11762;DHT22;5938;47.098;15.474;2023-08-06T14:27:29;23.60;90.10
11762;DHT22;5938;47.098;15.474;2023-08-06T14:31:34;23.90;88.00
11762;DHT22;5938;47.098;15.474;2023-08-06T14:35:39;24.10;87.70
11762;DHT22;5938;47.098;15.474;2023-08-06T14:39:45;25.10;85.50
11762;DHT22;5938;47.098;15.474;2023-08-06T14:43:49;26.30;73.40
11762;DHT22;5938;47.098;15.474;2023-08-06T14:47:54;28.10;66.90
11762;DHT22;5938;47.098;15.474;2023-08-06T14:51:59;31.30;65.00
11762;DHT22;5938;47.098;15.474;2023-08-06T14:56:06;29.40;62.20
11762;DHT22;5938;47.098;15.474;2023-08-06T15:00:12;28.40;73.10
11762;DHT22;5938;47.098;15.474;2023-08-06T15:04:17;26.20;70.60
11762;DHT22;5938;47.098;15.474;2023-08-06T15:08:23;26.30;66.30
11762;DHT22;5938;47.098;15.474;2023-08-06T15:12:30;27.40;69.60
11762;DHT22;5938;47.098;15.474;2023-08-06T15:16:35;29.40;62.90
11762;DHT22;5938;47.098;15.474;2023-08-06T15:20:39;27.90;59.50
11762;DHT22;5938;47.098;15.474;2023-08-06T15:24:45;26.00;63.10
11762;DHT22;5938;47.098;15.474;2023-08-06T15:28:51;26.90;68.10
11762;DHT22;5938;47.098;15.474;2023-08-06T15:32:56;28.00;61.20
11762;DHT22;5938;47.098;15.474;2023-08-06T15:37:01;27.60;61.70
11762;DHT22;5938;47.098;15.474;2023-08-06T15:41:06;28.10;61.30
11762;DHT22;5938;47.098;15.474;2023-08-06T15:45:12;27.00;67.30
11762;DHT22;5938;47.098;15.474;2023-08-06T15:49:16;24.50;67.80
11762;DHT22;5938;47.098;15.474;2023-08-06T15:53:20;23.70;72.80
11762;DHT22;5938;47.098;15.474;2023-08-06T15:57:25;23.60;80.50
11762;DHT22;5938;47.098;15.474;2023-08-06T16:01:30;23.60;74.40
11762;DHT22;5938;47.098;15.474;2023-08-06T16:05:35;23.60;78.60
11762;DHT22;5938;47.098;15.474;2023-08-06T16:09:39;23.50;82.60
11762;DHT22;5938;47.098;15.474;2023-08-06T16:13:45;22.40;76.20
11762;DHT22;5938;47.098;15.474;2023-08-06T16:17:51;22.60;84.10
11762;DHT22;5938;47.098;15.474;2023-08-06T16:21:56;22.50;78.70
11762;DHT22;5938;47.098;15.474;2023-08-06T16:26:03;21.70;79.30
11762;DHT22;5938;47.098;15.474;2023-08-06T16:30:08;21.20;82.80
11762;DHT22;5938;47.098;15.474;2023-08-06T16:34:16;20.90;85.70
11762;DHT22;5938;47.098;15.474;2023-08-06T16:38:22;20.40;85.80
11762;DHT22;5938;47.098;15.474;2023-08-06T16:42:27;20.10;90.00
11762;DHT22;5938;47.098;15.474;2023-08-06T16:52:04;19.70;90.50
11762;DHT22;5938;47.098;15.474;2023-08-06T16:56:13;19.40;91.50
11762;DHT22;5938;47.098;15.474;2023-08-06T17:00:17;19.30;90.50
11762;DHT22;5938;47.098;15.474;2023-08-06T17:04:23;19.30;92.50
11762;DHT22;5938;47.098;15.474;2023-08-06T17:08:28;19.00;92.40
11762;DHT22;5938;47.098;15.474;2023-08-06T17:12:37;18.80;91.80
11762;DHT22;5938;47.098;15.474;2023-08-06T17:16:41;18.70;92.70
11762;DHT22;5938;47.098;15.474;2023-08-06T17:20:46;19.00;94.90
11762;DHT22;5938;47.098;15.474;2023-08-06T17:24:53;19.20;95.10
11762;DHT22;5938;47.098;15.474;2023-08-06T17:28:59;19.40;95.80
11762;DHT22;5938;47.098;15.474;2023-08-06T17:33:04;19.20;95.00
11762;DHT22;5938;47.098;15.474;2023-08-06T17:37:09;19.00;97.10
11762;DHT22;5938;47.098;15.474;2023-08-06T17:41:16;18.90;97.10
11762;DHT22;5938;47.098;15.474;2023-08-06T17:45:20;18.90;99.20
11762;DHT22;5938;47.098;15.474;2023-08-06T17:49:25;18.80;99.90
11762;DHT22;5938;47.098;15.474;2023-08-06T17:53:30;18.50;99.90
11762;DHT22;5938;47.098;15.474;2023-08-06T17:57:43;18.40;99.90
11762;DHT22;5938;47.098;15.474;2023-08-06T18:01:50;18.00;99.90
11762;DHT22;5938;47.098;15.474;2023-08-06T18:05:57;17.80;99.90
11762;DHT22;5938;47.098;15.474;2023-08-06T18:10:08;17.70;99.90
11762;DHT22;5938;47.098;15.474;2023-08-06T18:14:16;17.60;99.90
11762;DHT22;5938;47.098;15.474;2023-08-06T18:18:26;17.40;99.90
11762;DHT22;5938;47.098;15.474;2023-08-06T18:22:32;17.30;99.90
11762;DHT22;5938;47.098;15.474;2023-08-06T18:26:38;17.00;99.90
11762;DHT22;5938;47.098;15.474;2023-08-06T18:30:52;16.80;99.90
11762;DHT22;5938;47.098;15.474;2023-08-06T18:35:01;16.50;99.90
11762;DHT22;5938;47.098;15.474;2023-08-06T18:39:09;16.40;99.90
11762;DHT22;5938;47.098;15.474;2023-08-06T18:43:28;16.30;99.90
11762;DHT22;5938;47.098;15.474;2023-08-06T18:47:40;16.10;99.90
11762;DHT22;5938;47.098;15.474;2023-08-06T18:51:50;15.90;99.90
11762;DHT22;5938;47.098;15.474;2023-08-06T18:56:02;15.80;99.90
11762;DHT22;5938;47.098;15.474;2023-08-06T19:00:11;15.70;99.90
11762;DHT22;5938;47.098;15.474;2023-08-06T19:04:45;15.50;99.90
11762;DHT22;5938;47.098;15.474;2023-08-06T19:08:57;15.40;99.90
11762;DHT22;5938;47.098;15.474;2023-08-06T19:13:11;15.30;99.90
11762;DHT22;5938;47.098;15.474;2023-08-06T19:17:22;15.30;99.90
11762;DHT22;5938;47.098;15.474;2023-08-06T19:21:37;15.20;99.90
11762;DHT22;5938;47.098;15.474;2023-08-06T19:25:46;15.10;99.90
11762;DHT22;5938;47.098;15.474;2023-08-06T19:29:56;14.90;99.90
11762;DHT22;5938;47.098;15.474;2023-08-06T19:34:05;14.80;99.90
11762;DHT22;5938;47.098;15.474;2023-08-06T19:38:23;14.70;99.90
11762;DHT22;5938;47.098;15.474;2023-08-06T19:42:28;14.60;99.90
11762;DHT22;5938;47.098;15.474;2023-08-06T19:46:33;14.40;99.90
11762;DHT22;5938;47.098;15.474;2023-08-06T19:50:37;14.30;99.90
11762;DHT22;5938;47.098;15.474;2023-08-06T19:54:43;14.20;99.90
11762;DHT22;5938;47.098;15.474;2023-08-06T19:58:47;14.10;99.90
11762;DHT22;5938;47.098;15.474;2023-08-06T20:02:53;14.00;99.90
11762;DHT22;5938;47.098;15.474;2023-08-06T20:06:57;13.90;99.90
11762;DHT22;5938;47.098;15.474;2023-08-06T20:11:03;13.80;99.90
11762;DHT22;5938;47.098;15.474;2023-08-06T20:15:08;13.60;99.90
11762;DHT22;5938;47.098;15.474;2023-08-06T20:19:14;13.40;99.90
11762;DHT22;5938;47.098;15.474;2023-08-06T20:23:19;13.20;99.90
11762;DHT22;5938;47.098;15.474;2023-08-06T20:27:25;13.00;99.90
11762;DHT22;5938;47.098;15.474;2023-08-06T20:31:29;12.90;99.90
11762;DHT22;5938;47.098;15.474;2023-08-06T20:35:36;12.80;99.90
11762;DHT22;5938;47.098;15.474;2023-08-06T20:39:40;12.60;99.90
11762;DHT22;5938;47.098;15.474;2023-08-06T20:43:46;12.50;99.90
11762;DHT22;5938;47.098;15.474;2023-08-06T20:47:49;12.40;99.90
11762;DHT22;5938;47.098;15.474;2023-08-06T20:51:53;12.30;99.90
11762;DHT22;5938;47.098;15.474;2023-08-06T20:55:59;12.30;99.90
11762;DHT22;5938;47.098;15.474;2023-08-06T21:00:05;12.30;99.90
11762;DHT22;5938;47.098;15.474;2023-08-06T21:04:09;12.20;99.90
11762;DHT22;5938;47.098;15.474;2023-08-06T21:08:13;12.10;99.90
11762;DHT22;5938;47.098;15.474;2023-08-06T21:12:16;12.20;99.90
11762;DHT22;5938;47.098;15.474;2023-08-06T21:16:21;12.10;99.90
11762;DHT22;5938;47.098;15.474;2023-08-06T21:20:25;12.00;99.90
11762;DHT22;5938;47.098;15.474;2023-08-06T21:24:29;11.90;99.90
11762;DHT22;5938;47.098;15.474;2023-08-06T21:28:34;11.80;99.90
11762;DHT22;5938;47.098;15.474;2023-08-06T21:32:40;11.80;99.90
11762;DHT22;5938;47.098;15.474;2023-08-06T21:36:43;11.80;99.90
11762;DHT22;5938;47.098;15.474;2023-08-06T21:40:47;11.80;99.90
11762;DHT22;5938;47.098;15.474;2023-08-06T21:44:50;11.80;99.90
11762;DHT22;5938;47.098;15.474;2023-08-06T21:48:55;11.80;99.90
11762;DHT22;5938;47.098;15.474;2023-08-06T21:53:00;11.90;99.90
11762;DHT22;5938;47.098;15.474;2023-08-06T21:57:04;12.00;99.90
11762;DHT22;5938;47.098;15.474;2023-08-06T22:01:10;12.00;99.90
11762;DHT22;5938;47.098;15.474;2023-08-06T22:05:15;12.00;99.90
11762;DHT22;5938;47.098;15.474;2023-08-06T22:09:19;11.90;99.90
11762;DHT22;5938;47.098;15.474;2023-08-06T22:13:23;11.90;99.90
11762;DHT22;5938;47.098;15.474;2023-08-06T22:17:27;11.90;99.90
11762;DHT22;5938;47.098;15.474;2023-08-06T22:21:32;11.80;99.90
11762;DHT22;5938;47.098;15.474;2023-08-06T22:25:36;11.80;99.90
11762;DHT22;5938;47.098;15.474;2023-08-06T22:29:40;11.70;99.90
11762;DHT22;5938;47.098;15.474;2023-08-06T22:33:43;11.60;99.90
11762;DHT22;5938;47.098;15.474;2023-08-06T22:37:50;11.50;99.90
11762;DHT22;5938;47.098;15.474;2023-08-06T22:41:54;11.50;99.90
11762;DHT22;5938;47.098;15.474;2023-08-06T22:45:58;11.40;99.90
11762;DHT22;5938;47.098;15.474;2023-08-06T22:50:01;11.30;99.90
11762;DHT22;5938;47.098;15.474;2023-08-06T22:54:14;11.30;99.90
11762;DHT22;5938;47.098;15.474;2023-08-06T22:58:18;11.20;99.90
11762;DHT22;5938;47.098;15.474;2023-08-06T23:02:21;11.10;99.90
11762;DHT22;5938;47.098;15.474;2023-08-06T23:06:33;11.10;99.90
11762;DHT22;5938;47.098;15.474;2023-08-06T23:10:38;11.00;99.90
11762;DHT22;5938;47.098;15.474;2023-08-06T23:14:41;10.90;99.90
11762;DHT22;5938;47.098;15.474;2023-08-06T23:18:47;10.80;99.90
11762;DHT22;5938;47.098;15.474;2023-08-06T23:22:51;10.80;99.90
11762;DHT22;5938;47.098;15.474;2023-08-06T23:26:58;10.70;99.90
11762;DHT22;5938;47.098;15.474;2023-08-06T23:31:02;10.80;99.90
11762;DHT22;5938;47.098;15.474;2023-08-06T23:35:06;10.70;99.90
11762;DHT22;5938;47.098;15.474;2023-08-06T23:39:10;10.70;99.90
11762;DHT22;5938;47.098;15.474;2023-08-06T23:43:15;10.60;99.90
11762;DHT22;5938;47.098;15.474;2023-08-06T23:47:19;10.50;99.90
11762;DHT22;5938;47.098;15.474;2023-08-06T23:51:23;10.50;99.90
11762;DHT22;5938;47.098;15.474;2023-08-06T23:55:28;10.50;99.90
11762;DHT22;5938;47.098;15.474;2023-08-06T23:59:34;10.40;99.90
